Time;durP1;ratioP1;P1;durP2;ratioP2;P2;SDS_P1;SDS_P2;PMS_P1;PMS_P2;Temp;Humidity;BMP_temperature;BMP_pressure;BME280_temperature;BME280_humidity;BME280_pressure;Samples;Min_cycle;Max_cycle;Signal;HPM_P1;HPM_P2
2022/08/11 00:01:47;;;;;;;2.30;1.70;;;17.50;99.90;;;;;;5073222;28;20050;-86
2022/08/11 00:04:15;;;;;;;2.83;1.63;;;17.50;99.90;;;;;;5072971;28;20036;-86
2022/08/11 00:06:44;;;;;;;2.00;1.73;;;17.50;99.90;;;;;;5055379;28;20152;-87
2022/08/11 00:09:14;;;;;;;4.45;1.73;;;17.40;99.90;;;;;;5054851;28;20385;-87
2022/08/11 00:11:44;;;;;;;4.73;2.27;;;17.40;99.90;;;;;;5055186;28;20056;-86
2022/08/11 00:14:21;;;;;;;3.83;2.05;;;17.30;99.90;;;;;;5049129;28;20090;-87
2022/08/11 00:17:02;;;;;;;6.53;2.13;;;17.40;99.90;;;;;;5072586;28;20065;-86
2022/08/11 00:19:41;;;;;;;4.50;2.08;;;17.40;99.90;;;;;;5090033;22;20048;-72
2022/08/11 00:22:08;;;;;;;3.95;2.72;;;17.40;99.90;;;;;;5067678;28;20438;-74
2022/08/11 00:24:35;;;;;;;3.28;2.30;;;17.40;99.90;;;;;;5073597;28;20103;-73
2022/08/11 00:27:02;;;;;;;4.30;2.13;;;17.40;99.90;;;;;;5073911;28;20082;-74
2022/08/11 00:29:29;;;;;;;2.53;1.75;;;17.60;99.90;;;;;;5072986;28;20381;-73
2022/08/11 00:31:57;;;;;;;5.30;1.90;;;17.50;99.90;;;;;;5072635;28;20169;-74
2022/08/11 00:34:26;;;;;;;4.60;2.03;;;17.50;99.90;;;;;;5072021;28;20025;-74
2022/08/11 00:37:09;;;;;;;3.05;2.00;;;17.40;99.90;;;;;;5072415;28;20516;-73
2022/08/11 00:39:45;;;;;;;6.60;2.30;;;17.40;99.90;;;;;;5072076;28;20039;-73
2022/08/11 00:42:26;;;;;;;4.55;2.13;;;17.40;99.90;;;;;;5072033;28;20020;-74
2022/08/11 00:45:19;;;;;;;7.03;2.80;;;17.40;99.90;;;;;;5060564;28;20048;-74
2022/08/11 00:48:14;;;;;;;4.03;2.33;;;17.30;99.90;;;;;;5063265;28;20016;-73
2022/08/11 00:51:04;;;;;;;2.88;2.05;;;17.50;99.90;;;;;;5060004;28;20027;-74
2022/08/11 00:53:47;;;;;;;2.30;1.88;;;17.30;99.90;;;;;;5071969;28;20619;-74
2022/08/11 00:56:28;;;;;;;4.50;2.20;;;17.30;99.90;;;;;;5071942;28;21543;-74
2022/08/11 00:59:18;;;;;;;12.23;2.40;;;17.40;99.90;;;;;;5071573;28;20043;-73
2022/08/11 01:01:58;;;;;;;3.65;1.95;;;17.40;99.90;;;;;;5071818;28;20093;-73
2022/08/11 01:04:43;;;;;;;3.00;2.22;;;17.40;99.90;;;;;;5071182;28;20035;-74
2022/08/11 01:07:24;;;;;;;5.75;2.58;;;17.30;99.90;;;;;;5071738;28;20028;-74
2022/08/11 01:09:52;;;;;;;2.60;2.40;;;17.30;99.90;;;;;;5071446;28;20013;-73
2022/08/11 01:12:37;;;;;;;4.13;2.10;;;17.40;99.90;;;;;;5071808;28;20115;-74
2022/08/11 01:15:44;;;;;;;2.22;1.83;;;17.40;99.90;;;;;;5053557;28;20021;-74
2022/08/11 01:20:51;;;;;;;5.47;2.47;;;17.30;99.90;;;;;;5068601;28;20040;-86
2022/08/11 01:23:30;;;;;;;3.25;1.77;;;17.30;99.90;;;;;;5071617;28;20020;-86
2022/08/11 01:26:16;;;;;;;2.35;2.00;;;17.20;99.90;;;;;;5072636;28;20031;-86
2022/08/11 01:29:32;;;;;;;5.82;2.28;;;17.20;99.90;;;;;;5067758;28;20016;-85
2022/08/11 01:32:19;;;;;;;3.97;2.50;;;17.10;99.90;;;;;;5053573;28;20080;-86
2022/08/11 01:35:03;;;;;;;2.85;2.33;;;17.00;99.90;;;;;;5040171;28;20052;-86
2022/08/11 01:38:06;;;;;;;7.10;1.83;;;16.90;99.90;;;;;;5040238;28;20016;-87
2022/08/11 01:41:09;;;;;;;3.30;2.03;;;16.80;99.90;;;;;;5044782;28;20377;-86
2022/08/11 01:47:49;;;;;;;2.63;2.33;;;16.60;99.90;;;;;;5070984;28;20073;-86
2022/08/11 01:50:12;;;;;;;2.85;2.47;;;16.50;99.90;;;;;;5065253;28;20017;-86
2022/08/11 01:53:00;;;;;;;5.10;2.20;;;16.40;99.90;;;;;;5070513;28;20077;-85
2022/08/11 01:55:47;;;;;;;5.20;2.67;;;16.40;99.90;;;;;;5053038;28;20166;-85
2022/08/11 01:58:58;;;;;;;2.92;2.47;;;16.40;99.90;;;;;;5052930;28;20021;-85
2022/08/11 02:01:39;;;;;;;2.92;2.55;;;16.30;99.90;;;;;;5029458;28;20037;-86
2022/08/11 02:04:21;;;;;;;3.97;2.15;;;16.20;99.90;;;;;;5070698;28;20448;-86
2022/08/11 02:07:07;;;;;;;;;;;16.20;99.90;;;;;;5061336;28;20107;-86
2022/08/11 02:09:53;;;;;;;2.65;2.45;;;16.10;99.90;;;;;;5051912;28;19950;-87
2022/08/11 02:12:45;;;;;;;3.70;2.38;;;16.20;99.90;;;;;;5042246;28;20052;-86
2022/08/11 02:15:28;;;;;;;7.72;2.67;;;16.20;99.90;;;;;;5051384;28;20029;-86
2022/08/11 02:23:53;;;;;;;3.97;2.13;;;16.20;99.90;;;;;;5031515;28;20036;-73
2022/08/11 02:26:27;;;;;;;4.28;2.80;;;16.20;99.90;;;;;;5031325;28;20036;-73
2022/08/11 02:29:18;;;;;;;4.53;2.60;;;16.20;99.90;;;;;;5031100;28;20065;-73
2022/08/11 02:35:14;;;;;;;6.75;2.38;;;16.20;99.90;;;;;;4970081;28;20254;-73
2022/08/11 02:37:44;;;;;;;3.38;2.30;;;16.20;99.90;;;;;;5013264;28;20025;-73
2022/08/11 02:40:37;;;;;;;5.80;2.80;;;16.20;99.90;;;;;;5030025;28;20024;-73
2022/08/11 02:43:23;;;;;;;3.63;2.53;;;16.20;99.90;;;;;;5018499;28;20022;-73
2022/08/11 02:46:04;;;;;;;6.22;2.75;;;16.10;99.90;;;;;;5018952;28;20026;-73
2022/08/11 02:51:43;;;;;;;6.32;2.67;;;16.00;99.90;;;;;;5026810;28;20095;-73
2022/08/11 02:54:31;;;;;;;6.35;2.45;;;15.90;99.90;;;;;;5029641;28;20029;-73
2022/08/11 02:57:05;;;;;;;4.85;3.25;;;15.80;99.90;;;;;;5029730;28;20018;-73
2022/08/11 02:59:49;;;;;;;4.00;2.45;;;15.80;99.90;;;;;;5029959;28;20108;-73
2022/08/11 03:02:14;;;;;;;3.83;2.47;;;15.80;99.90;;;;;;5020233;28;20025;-73
2022/08/11 03:04:50;;;;;;;4.68;2.42;;;15.80;99.90;;;;;;5029592;28;20020;-73
2022/08/11 03:07:47;;;;;;;4.70;2.88;;;15.80;99.90;;;;;;5029957;28;20025;-73
2022/08/11 03:10:24;;;;;;;6.97;2.92;;;15.70;99.90;;;;;;5016355;28;20494;-73
2022/08/11 03:19:29;;;;;;;4.70;2.50;;;15.60;99.90;;;;;;5029908;28;20064;-73
2022/08/11 03:22:09;;;;;;;3.63;2.97;;;15.50;99.90;;;;;;5029678;28;20057;-73
2022/08/11 03:24:56;;;;;;;5.30;2.75;;;15.50;99.90;;;;;;5029810;28;20057;-73
2022/08/11 03:27:38;;;;;;;3.13;2.47;;;15.50;99.90;;;;;;5030850;28;20474;-73
2022/08/11 03:30:14;;;;;;;3.25;2.22;;;15.40;99.90;;;;;;5015657;28;20061;-73
2022/08/11 03:36:08;;;;;;;4.05;2.47;;;15.30;99.90;;;;;;5026380;28;20123;-73
2022/08/11 03:38:58;;;;;;;3.70;2.85;;;15.20;99.90;;;;;;5033935;28;20083;-73
2022/08/11 03:41:43;;;;;;;5.13;3.08;;;15.10;99.90;;;;;;5033273;28;20013;-73
2022/08/11 03:44:17;;;;;;;5.13;3.28;;;15.10;99.90;;;;;;5025873;28;20547;-74
2022/08/11 03:46:57;;;;;;;4.85;2.85;;;15.10;99.90;;;;;;5033200;28;20017;-73
2022/08/11 03:49:42;;;;;;;3.80;2.92;;;15.20;99.90;;;;;;5020636;28;20022;-73
2022/08/11 03:52:47;;;;;;;4.53;2.83;;;15.10;99.90;;;;;;5021760;28;20075;-73
2022/08/11 03:55:31;;;;;;;3.95;3.00;;;15.10;99.90;;;;;;5009629;28;20083;-73
2022/08/11 03:58:15;;;;;;;3.65;2.83;;;15.10;99.90;;;;;;5033371;28;20057;-73
2022/08/11 04:00:47;;;;;;;7.10;3.40;;;15.10;99.90;;;;;;5015387;28;20498;-73
2022/08/11 04:03:29;;;;;;;7.90;2.78;;;15.10;99.90;;;;;;5032784;28;20021;-73
2022/08/11 04:06:06;;;;;;;4.10;3.35;;;15.00;99.90;;;;;;5032292;28;20051;-73
2022/08/11 04:08:40;;;;;;;4.25;3.28;;;15.00;99.90;;;;;;5022488;28;20025;-73
2022/08/11 04:11:43;;;;;;;5.65;2.92;;;14.90;99.90;;;;;;5014635;28;20450;-73
2022/08/11 04:17:32;;;;;;;7.72;3.28;;;15.10;99.90;;;;;;5033056;28;20052;-72
2022/08/11 04:20:22;;;;;;;7.63;3.28;;;15.00;99.90;;;;;;5032793;28;20105;-73
2022/08/11 04:23:13;;;;;;;6.13;3.85;;;14.90;99.90;;;;;;5032476;28;20318;-73
2022/08/11 04:26:00;;;;;;;6.38;3.63;;;14.90;99.90;;;;;;5019579;28;20010;-73
2022/08/11 04:28:43;;;;;;;3.95;3.22;;;14.80;99.90;;;;;;5002490;28;20017;-73
2022/08/11 04:31:28;;;;;;;5.15;3.30;;;14.80;99.90;;;;;;5026550;28;20030;-73
2022/08/11 04:34:13;;;;;;;5.97;3.05;;;14.80;99.90;;;;;;5020051;28;20041;-73
2022/08/11 04:40:31;;;;;;;7.65;3.55;;;14.70;99.90;;;;;;5027797;28;20040;-73
2022/08/11 04:43:21;;;;;;;6.55;3.38;;;14.70;99.90;;;;;;5019842;28;20029;-73
2022/08/11 04:46:13;;;;;;;7.65;3.72;;;14.70;99.90;;;;;;5021110;28;20041;-73
2022/08/11 05:01:39;;;;;;;5.45;3.40;;;14.60;99.90;;;;;;5031967;28;20497;-73
2022/08/11 05:01:41;;;;;;;12.13;3.65;;;14.80;99.90;;;;;;4911186;29;20047;-73
2022/08/11 05:07:40;;;;;;;5.47;3.50;;;14.80;99.90;;;;;;5031490;28;20028;-73
2022/08/11 05:10:17;;;;;;;8.75;3.53;;;14.90;99.90;;;;;;5030985;28;20028;-73
2022/08/11 05:12:55;;;;;;;4.32;3.20;;;14.90;99.90;;;;;;5031232;28;20470;-73
2022/08/11 05:35:45;;;;;;;5.53;3.88;;;15.10;99.90;;;;;;5071835;28;20393;-74
2022/08/11 05:57:48;;;;;;;4.95;3.47;;;16.00;99.90;;;;;;5067222;28;20054;-74
2022/08/11 06:00:14;;;;;;;5.28;3.40;;;16.30;99.90;;;;;;5071440;28;20033;-74
2022/08/11 06:03:06;;;;;;;6.82;4.03;;;16.40;99.90;;;;;;5070903;28;20115;-74
2022/08/11 06:05:36;;;;;;;7.38;3.60;;;16.60;99.90;;;;;;5070403;28;20021;-74
2022/08/11 06:08:04;;;;;;;7.43;4.03;;;16.70;99.90;;;;;;5070588;28;20025;-73
2022/08/11 06:10:36;;;;;;;9.45;4.80;;;17.00;99.90;;;;;;5070236;28;20024;-74
2022/08/11 06:13:04;;;;;;;6.35;4.57;;;17.10;99.90;;;;;;5071058;28;20012;-74
2022/08/11 06:15:33;;;;;;;9.55;4.55;;;17.20;99.90;;;;;;5070740;28;20482;-74
2022/08/11 06:18:01;;;;;;;11.05;4.18;;;17.40;99.90;;;;;;5070358;28;20028;-74
2022/08/11 06:20:35;;;;;;;9.68;4.60;;;17.60;99.90;;;;;;5084281;22;20048;-85
2022/08/11 06:23:06;;;;;;;5.88;3.47;;;17.80;99.90;;;;;;5046600;28;20032;-86
2022/08/11 06:25:34;;;;;;;6.07;3.70;;;18.00;99.90;;;;;;5063415;28;20013;-86
2022/08/11 06:28:04;;;;;;;8.48;4.35;;;18.20;99.90;;;;;;5051587;28;20269;-85
2022/08/11 06:30:40;;;;;;;11.30;4.35;;;18.40;99.90;;;;;;5052469;28;20020;-85
2022/08/11 06:33:11;;;;;;;7.18;4.60;;;18.50;99.90;;;;;;5070385;28;20025;-84
2022/08/11 06:35:51;;;;;;;7.45;3.72;;;18.80;99.90;;;;;;5052428;28;20107;-85
2022/08/11 06:38:42;;;;;;;8.02;4.18;;;18.90;99.90;;;;;;5052284;28;20066;-85
2022/08/11 06:41:30;;;;;;;9.70;4.20;;;18.90;99.90;;;;;;5064046;28;20097;-85
2022/08/11 06:44:11;;;;;;;15.65;4.82;;;18.90;99.90;;;;;;5064454;28;20012;-85
2022/08/11 06:46:43;;;;;;;6.38;4.20;;;19.00;99.90;;;;;;5051734;28;20116;-84
2022/08/11 06:52:05;;;;;;;6.78;4.20;;;19.20;99.90;;;;;;5062472;28;20031;-84
2022/08/11 06:54:35;;;;;;;11.05;4.72;;;19.20;99.90;;;;;;5068996;28;20082;-84
2022/08/11 07:02:45;;;;;;;9.38;4.75;;;19.30;99.90;;;;;;5069893;28;20047;-83
2022/08/11 07:05:26;;;;;;;6.25;3.92;;;19.40;99.90;;;;;;5066929;28;20508;-82
2022/08/11 07:17:13;;;;;;;8.02;3.55;;;19.90;99.90;;;;;;5069513;28;20389;-84
2022/08/11 07:31:05;;;;;;;7.20;3.13;;;20.30;99.90;;;;;;5047958;28;20064;-73
2022/08/11 07:33:41;;;;;;;6.35;3.03;;;20.40;99.90;;;;;;5049534;28;20021;-73
2022/08/11 07:36:11;;;;;;;6.65;3.17;;;20.60;99.90;;;;;;5046973;28;20028;-73
2022/08/11 07:39:06;;;;;;;6.50;3.72;;;20.70;99.90;;;;;;5047904;28;20033;-73
2022/08/11 07:41:33;;;;;;;5.03;3.00;;;20.70;99.90;;;;;;5047232;28;20060;-73
2022/08/11 07:44:07;;;;;;;6.75;2.85;;;20.80;99.90;;;;;;5047636;28;20079;-73
2022/08/11 07:54:52;;;;;;;5.25;2.50;;;21.10;99.90;;;;;;5048899;28;20440;-73
2022/08/11 08:19:20;;;;;;;4.80;2.17;;;22.10;99.90;;;;;;5083518;22;20047;-85
2022/08/11 08:21:47;;;;;;;3.60;2.25;;;22.10;99.90;;;;;;5072366;28;20024;-85
2022/08/11 08:24:14;;;;;;;2.15;1.92;;;22.20;99.90;;;;;;5073200;28;20086;-85
2022/08/11 08:26:57;;;;;;;2.22;2.05;;;22.30;99.90;;;;;;5073495;28;20078;-85
2022/08/11 08:32:15;;;;;;;6.50;2.42;;;22.70;99.90;;;;;;5049634;28;20028;-85
2022/08/11 08:34:42;;;;;;;3.35;2.35;;;22.90;99.90;;;;;;5060336;28;20396;-86
2022/08/11 08:37:07;;;;;;;3.95;2.53;;;23.00;99.90;;;;;;5054089;28;20490;-85
2022/08/11 08:39:36;;;;;;;3.28;1.92;;;23.10;99.90;;;;;;5053517;28;20039;-85
2022/08/11 08:42:06;;;;;;;3.40;2.28;;;23.10;99.90;;;;;;5047083;28;20021;-85
2022/08/11 08:44:35;;;;;;;4.88;2.20;;;23.20;99.90;;;;;;5053877;28;20063;-85
2022/08/11 08:47:03;;;;;;;1.85;1.70;;;23.30;99.90;;;;;;5053959;28;20067;-85
2022/08/11 08:49:34;;;;;;;3.80;1.73;;;23.50;99.90;;;;;;5035110;28;20067;-86
2022/08/11 08:52:06;;;;;;;3.10;1.90;;;23.70;99.90;;;;;;5053767;28;20028;-86
2022/08/11 08:54:38;;;;;;;5.88;2.25;;;24.00;99.90;;;;;;5053728;28;20021;-85
2022/08/11 08:57:06;;;;;;;3.70;1.83;;;24.20;98.50;;;;;;5053610;28;20017;-86
2022/08/11 08:59:40;;;;;;;4.72;1.58;;;24.50;93.10;;;;;;5035535;28;20033;-84
2022/08/11 09:02:11;;;;;;;4.15;1.45;;;24.70;90.70;;;;;;5047598;28;20068;-84
2022/08/11 09:04:39;;;;;;;3.67;2.25;;;24.90;86.70;;;;;;5053181;28;20025;-85
2022/08/11 09:07:17;;;;;;;2.47;1.42;;;25.00;86.30;;;;;;5053520;28;20135;-85
2022/08/11 09:09:46;;;;;;;2.72;1.60;;;25.20;80.70;;;;;;5035489;28;20511;-84
2022/08/11 09:12:13;;;;;;;2.92;1.67;;;25.50;78.90;;;;;;5053453;28;20025;-85
2022/08/11 09:14:59;;;;;;;3.38;1.60;;;25.80;75.50;;;;;;5053405;28;20021;-85
2022/08/11 09:17:26;;;;;;;1.30;1.23;;;26.00;71.90;;;;;;5042467;28;20017;-85
2022/08/11 09:20:02;;;;;;;4.32;1.63;;;26.60;65.70;;;;;;5079211;22;20045;-74
2022/08/11 09:28:06;;;;;;;1.63;1.30;;;28.60;57.30;;;;;;5072059;28;20112;-74
2022/08/11 09:30:32;;;;;;;3.28;1.58;;;28.50;54.40;;;;;;5056814;28;20025;-74
2022/08/11 09:33:01;;;;;;;3.75;1.40;;;28.50;53.00;;;;;;5052899;28;20516;-74
2022/08/11 09:35:28;;;;;;;1.67;1.00;;;28.60;53.60;;;;;;5052545;28;20426;-74
2022/08/11 09:40:45;;;;;;;2.40;1.50;;;30.10;50.70;;;;;;5052639;28;20123;-74
2022/08/11 09:45:59;;;;;;;3.15;1.35;;;33.10;43.80;;;;;;5048406;28;20028;-74
2022/08/11 09:48:28;;;;;;;2.85;1.30;;;34.90;38.10;;;;;;5052746;28;20017;-74
2022/08/11 09:50:59;;;;;;;1.92;0.98;;;36.00;33.60;;;;;;5052244;28;20025;-74
2022/08/11 09:53:26;;;;;;;1.70;1.20;;;35.80;30.90;;;;;;5052616;28;20494;-74
2022/08/11 09:55:53;;;;;;;1.80;1.10;;;36.60;29.50;;;;;;5052347;28;20079;-74
2022/08/11 09:58:21;;;;;;;1.58;1.13;;;36.90;30.00;;;;;;5058861;28;20056;-74
2022/08/11 10:00:49;;;;;;;3.13;1.08;;;37.60;29.10;;;;;;5052149;28;20029;-74
2022/08/11 10:03:23;;;;;;;1.70;1.20;;;38.10;28.10;;;;;;5052315;28;20017;-74
2022/08/11 10:08:41;;;;;;;1.40;0.90;;;38.60;26.40;;;;;;5047674;28;20032;-74
2022/08/11 10:11:17;;;;;;;3.20;0.98;;;39.60;26.70;;;;;;5045643;28;20025;-74
2022/08/11 10:16:36;;;;;;;7.28;1.13;;;40.70;23.90;;;;;;5045139;28;20062;-74
2022/08/11 10:19:03;;;;;;;3.97;1.20;;;41.00;23.60;;;;;;5067164;22;20004;-82
2022/08/11 10:21:35;;;;;;;5.18;1.33;;;41.10;22.80;;;;;;4988776;28;20030;-83
2022/08/11 10:26:57;;;;;;;1.33;0.90;;;41.60;23.10;;;;;;4984150;28;20072;-83
2022/08/11 10:35:11;;;;;;;3.47;1.20;;;42.20;22.80;;;;;;4970161;28;20092;-84
2022/08/11 10:37:38;;;;;;;2.60;1.10;;;40.60;22.50;;;;;;4969403;28;20022;-84
2022/08/11 10:40:06;;;;;;;1.27;1.17;;;40.80;24.40;;;;;;4969045;28;20037;-84
2022/08/11 10:48:04;;;;;;;3.35;1.33;;;41.90;22.70;;;;;;4970705;28;20037;-84
2022/08/11 10:58:48;;;;;;;3.22;1.20;;;43.10;22.30;;;;;;4969988;28;20038;-82
2022/08/11 11:01:21;;;;;;;6.53;1.55;;;43.70;22.60;;;;;;4970020;28;20030;-82
2022/08/11 11:03:51;;;;;;;2.67;1.40;;;44.20;21.40;;;;;;4970055;28;20023;-83
2022/08/11 11:06:27;;;;;;;1.00;0.88;;;44.00;21.00;;;;;;4969828;28;20451;-83
2022/08/11 11:09:16;;;;;;;2.40;0.90;;;43.70;20.80;;;;;;4969701;28;20062;-82
2022/08/11 11:18:00;;;;;;;3.10;1.10;;;44.20;20.80;;;;;;4970036;28;20522;-83
2022/08/11 11:20:43;;;;;;;1.45;0.82;;;44.00;20.40;;;;;;5050372;23;20058;-74
2022/08/11 11:23:19;;;;;;;1.58;1.20;;;44.90;21.50;;;;;;5069933;28;20016;-75
2022/08/11 11:26:05;;;;;;;1.40;1.00;;;45.00;19.90;;;;;;5064085;28;20095;-75
2022/08/11 11:28:52;;;;;;;1.65;1.00;;;44.80;19.80;;;;;;5064596;28;20021;-74
2022/08/11 11:31:33;;;;;;;2.50;1.08;;;45.60;20.30;;;;;;5032446;28;20600;-75
2022/08/11 11:34:26;;;;;;;2.95;1.20;;;44.70;19.30;;;;;;5032152;28;20040;-74
2022/08/11 11:36:56;;;;;;;2.17;0.80;;;45.00;20.40;;;;;;5045507;28;20017;-74
2022/08/11 11:39:24;;;;;;;2.85;0.95;;;44.90;19.70;;;;;;5043798;28;20033;-74
2022/08/11 11:41:54;;;;;;;2.10;1.13;;;45.20;19.00;;;;;;5049876;28;20070;-74
2022/08/11 11:44:24;;;;;;;0.90;0.90;;;45.40;19.80;;;;;;5049838;28;20060;-74
2022/08/11 11:46:51;;;;;;;4.88;1.10;;;46.10;18.70;;;;;;5050013;28;20258;-75
2022/08/11 11:49:19;;;;;;;1.50;0.95;;;46.20;19.00;;;;;;5052483;28;20028;-74
2022/08/11 11:51:51;;;;;;;1.25;0.95;;;46.50;18.20;;;;;;5042880;28;20021;-75
2022/08/11 11:54:20;;;;;;;1.25;0.90;;;46.10;19.00;;;;;;5035934;28;20362;-75
2022/08/11 11:56:46;;;;;;;1.73;1.13;;;46.50;19.10;;;;;;5054073;28;20041;-75
2022/08/11 12:01:58;;;;;;;1.80;1.00;;;46.30;18.90;;;;;;5053195;28;20758;-74
2022/08/11 12:04:25;;;;;;;1.23;0.93;;;45.80;18.70;;;;;;5004856;28;20091;-74
2022/08/11 12:08:08;;;;;;;2.67;0.90;;;45.90;18.40;;;;;;5053181;28;20374;-75
2022/08/11 12:09:38;;;;;;;1.92;0.80;;;45.80;18.80;;;;;;5048917;28;20029;-75
2022/08/11 12:14:49;;;;;;;3.88;0.90;;;45.50;18.40;;;;;;5046922;28;20507;-75
2022/08/11 12:17:15;;;;;;;1.80;0.88;;;45.80;18.40;;;;;;5053178;28;20497;-74
2022/08/11 12:19:41;;;;;;;3.83;0.88;;;46.60;18.00;;;;;;5043860;22;20081;-84
2022/08/11 12:27:39;;;;;;;2.42;0.80;;;45.50;18.00;;;;;;4984788;28;20029;-85
2022/08/11 12:30:07;;;;;;;1.75;1.00;;;46.50;18.80;;;;;;4985496;28;20019;-85
2022/08/11 12:32:35;;;;;;;2.30;0.82;;;45.00;18.00;;;;;;4972197;28;20035;-85
2022/08/11 12:35:02;;;;;;;1.27;1.08;;;45.40;18.50;;;;;;4971830;28;20030;-85
2022/08/11 12:37:43;;;;;;;3.55;0.77;;;46.60;17.80;;;;;;4970549;28;20023;-85
2022/08/11 12:45:57;;;;;;;0.90;0.80;;;47.70;17.70;;;;;;4966750;28;20029;-85
2022/08/11 12:54:22;;;;;;;4.32;0.95;;;48.00;17.60;;;;;;4966584;28;20400;-83
2022/08/11 13:05:12;;;;;;;1.75;0.60;;;48.90;18.60;;;;;;4971559;28;20083;-86
2022/08/11 13:07:44;;;;;;;2.72;1.10;;;49.10;17.00;;;;;;4970320;28;20019;-86
2022/08/11 13:10:13;;;;;;;1.55;0.90;;;49.20;16.80;;;;;;4978202;28;20027;-85
2022/08/11 13:12:46;;;;;;;1.65;0.77;;;48.40;16.60;;;;;;4971479;28;20046;-86
2022/08/11 13:15:18;;;;;;;2.25;0.90;;;47.70;16.90;;;;;;4971411;28;20031;-85
2022/08/11 13:17:47;;;;;;;0.75;0.68;;;48.00;17.30;;;;;;4971237;28;20027;-85
2022/08/11 13:20:18;;;;;;;3.30;0.90;;;47.20;17.20;;;;;;4978257;28;20027;-82
2022/08/11 13:22:48;;;;;;;1.88;1.10;;;47.40;17.80;;;;;;4971474;28;20484;-83
2022/08/11 13:25:15;;;;;;;;;;;47.40;17.90;;;;;;4970636;28;20038;-82
2022/08/11 13:27:42;;;;;;;1.35;1.10;;;47.60;18.30;;;;;;4970258;28;19913;-83
2022/08/11 13:32:54;;;;;;;1.20;0.90;;;47.60;17.90;;;;;;4971362;28;20097;-85
2022/08/11 13:35:22;;;;;;;2.47;1.65;;;47.50;18.70;;;;;;4969751;28;20165;-84
2022/08/11 13:37:50;;;;;;;2.42;1.05;;;47.30;17.90;;;;;;4971469;28;20545;-83
2022/08/11 13:40:19;;;;;;;2.45;1.20;;;47.40;18.50;;;;;;4963248;28;20117;-83
2022/08/11 13:42:45;;;;;;;4.03;1.00;;;47.40;17.80;;;;;;4970080;28;20046;-83
2022/08/11 13:45:12;;;;;;;2.67;0.90;;;47.90;17.80;;;;;;4971190;28;20023;-85
2022/08/11 13:47:39;;;;;;;3.92;1.10;;;47.90;17.60;;;;;;4971276;28;20015;-85
2022/08/11 13:50:06;;;;;;;1.52;0.98;;;47.90;18.40;;;;;;4970736;28;20023;-85
2022/08/11 13:52:33;;;;;;;2.80;0.82;;;48.30;17.80;;;;;;4970942;28;20034;-85
2022/08/11 13:55:00;;;;;;;3.30;0.80;;;48.50;18.20;;;;;;4969567;28;20117;-85
2022/08/11 13:57:32;;;;;;;1.38;0.70;;;49.60;18.20;;;;;;4971041;28;20048;-85
2022/08/11 14:00:08;;;;;;;2.83;1.00;;;50.40;17.90;;;;;;4970795;28;20026;-85
2022/08/11 14:02:36;;;;;;;1.15;0.80;;;50.40;17.50;;;;;;4969623;28;20026;-85
2022/08/11 14:05:07;;;;;;;2.95;1.02;;;51.20;16.80;;;;;;4970566;28;20104;-85
2022/08/11 14:07:46;;;;;;;1.27;1.00;;;50.50;16.20;;;;;;4964365;28;20026;-85
2022/08/11 14:10:15;;;;;;;1.50;0.80;;;49.80;16.30;;;;;;4976037;28;20018;-85
2022/08/11 14:15:31;;;;;;;3.33;0.98;;;48.90;16.80;;;;;;4969602;28;20026;-84
2022/08/11 14:18:03;;;;;;;1.70;1.20;;;49.00;16.70;;;;;;4970476;28;20564;-84
2022/08/11 14:22:05;;;;;;;2.70;0.98;;;48.00;16.90;;;;;;5052114;23;20041;-74
2022/08/11 14:23:25;;;;;;;1.70;0.90;;;47.30;17.50;;;;;;5066490;28;20027;-74
2022/08/11 14:28:36;;;;;;;3.25;0.88;;;48.00;18.10;;;;;;5065554;28;20166;-74
2022/08/11 14:31:05;;;;;;;0.70;0.70;;;48.00;18.00;;;;;;5051381;28;20084;-74
2022/08/11 14:33:32;;;;;;;1.23;0.70;;;48.30;18.70;;;;;;5052320;28;20028;-74
2022/08/11 14:35:58;;;;;;;0.50;0.50;;;48.80;18.70;;;;;;5051176;28;20021;-74
2022/08/11 14:38:24;;;;;;;0.65;0.65;;;48.70;18.00;;;;;;5058678;28;20024;-74
2022/08/11 14:49:11;;;;;;;1.00;0.90;;;47.70;17.50;;;;;;5038509;28;20039;-74
2022/08/11 14:51:38;;;;;;;3.88;1.63;;;46.00;17.60;;;;;;5055182;28;20029;-78
2022/08/11 14:56:48;;;;;;;2.95;0.90;;;45.80;18.30;;;;;;5045461;28;20063;-77
2022/08/11 14:59:13;;;;;;;2.13;1.00;;;45.80;18.20;;;;;;5044095;28;20033;-76
2022/08/11 15:04:25;;;;;;;1.23;1.00;;;47.00;18.50;;;;;;5043627;28;20052;-76
2022/08/11 15:06:51;;;;;;;1.50;0.90;;;46.20;19.00;;;;;;5053272;28;20021;-75
2022/08/11 15:09:17;;;;;;;2.70;1.02;;;47.10;17.80;;;;;;5055953;28;20021;-75
2022/08/11 15:17:14;;;;;;;1.48;1.02;;;46.60;18.90;;;;;;5058051;28;20031;-74
2022/08/11 15:24:18;;;;;;;1.00;0.90;;;46.20;18.20;;;;;;5055317;28;20040;-74
2022/08/11 15:25:13;;;;;;;1.38;1.00;;;46.70;18.00;;;;;;5059138;28;20045;-76
2022/08/11 15:39:00;;;;;;;1.67;0.77;;;45.40;17.80;;;;;;5057926;28;20555;-75
2022/08/11 15:47:24;;;;;;;2.17;0.93;;;45.10;16.70;;;;;;5054952;28;20049;-74
2022/08/11 15:49:53;;;;;;;0.60;0.60;;;44.40;18.10;;;;;;5047693;22;20084;-82
2022/08/11 15:52:24;;;;;;;2.83;0.70;;;43.70;18.00;;;;;;4972690;28;20045;-85
2022/08/11 15:54:50;;;;;;;1.05;0.70;;;43.90;18.70;;;;;;4972828;28;20133;-85
2022/08/11 16:05:22;;;;;;;0.60;0.60;;;40.60;18.40;;;;;;4977529;28;20046;-94
2022/08/11 16:07:50;;;;;;;1.02;0.68;;;40.50;18.10;;;;;;4986916;28;20022;-91
2022/08/11 16:10:20;;;;;;;0.88;0.80;;;39.90;18.00;;;;;;4985881;28;20033;-88
2022/08/11 16:18:47;;;;;;;1.40;0.85;;;37.50;20.10;;;;;;4982103;28;20443;-86
2022/08/11 16:21:20;;;;;;;1.30;0.73;;;36.30;20.00;;;;;;4987754;28;20018;-85
2022/08/11 16:23:48;;;;;;;0.82;0.75;;;36.20;21.40;;;;;;4991483;28;20084;-84
2022/08/11 16:26:19;;;;;;;0.95;0.73;;;35.90;20.60;;;;;;4997994;28;20032;-90
2022/08/11 16:28:46;;;;;;;0.85;0.75;;;35.50;20.40;;;;;;4998911;28;20482;-89
2022/08/11 16:31:12;;;;;;;1.20;1.00;;;34.80;21.00;;;;;;4995915;28;20027;-85
2022/08/11 16:33:40;;;;;;;4.00;0.75;;;34.20;20.80;;;;;;4990714;28;20026;-85
2022/08/11 16:38:53;;;;;;;0.90;0.80;;;34.20;21.60;;;;;;4990676;28;20076;-82
2022/08/11 16:47:15;;;;;;;1.08;0.73;;;33.60;21.80;;;;;;4995316;28;20073;-84
2022/08/11 16:49:45;;;;;;;;;;;33.60;22.70;;;;;;5003581;23;20063;-73
2022/08/11 16:52:11;;;;;;;1.50;1.08;;;33.40;22.50;;;;;;4969108;28;19906;-74
2022/08/11 16:54:39;;;;;;;1.80;0.80;;;33.30;22.70;;;;;;4970769;28;20034;-73
2022/08/11 17:00:03;;;;;;;1.17;0.88;;;32.90;23.90;;;;;;4975976;28;20049;-73
2022/08/11 17:13:55;;;;;;;2.42;1.00;;;31.90;25.90;;;;;;4970266;28;20065;-74
2022/08/11 17:16:30;;;;;;;1.40;1.10;;;31.70;25.30;;;;;;4970834;28;20540;-74
2022/08/11 17:19:03;;;;;;;1.58;1.30;;;31.60;26.50;;;;;;4970874;28;20031;-74
2022/08/11 17:21:32;;;;;;;1.90;1.30;;;31.50;26.50;;;;;;4970780;28;20027;-74
2022/08/11 17:24:13;;;;;;;3.20;1.20;;;31.20;27.30;;;;;;4979205;28;20030;-74
2022/08/11 17:26:58;;;;;;;1.73;1.23;;;31.20;27.30;;;;;;4971195;28;20022;-74
2022/08/11 17:29:37;;;;;;;1.38;1.20;;;31.20;28.30;;;;;;4976919;28;20023;-73
2022/08/11 17:35:31;;;;;;;1.30;1.20;;;30.90;28.10;;;;;;4966371;28;20042;-74
2022/08/11 17:38:13;;;;;;;3.38;1.60;;;30.90;29.50;;;;;;4967028;28;20070;-73
2022/08/11 17:48:24;;;;;;;2.28;1.77;;;30.60;28.20;;;;;;4952975;28;20041;-74
2022/08/11 18:00:03;;;;;;;2.78;1.60;;;29.80;30.10;;;;;;4988668;28;20053;-81
2022/08/11 18:05:18;;;;;;;2.70;1.60;;;29.60;30.30;;;;;;4983772;28;20050;-82
